Time;durP1;ratioP1;P1;durP2;ratioP2;P2;SDS_P1;SDS_P2;PMS_P1;PMS_P2;Temp;Humidity;BMP_temperature;BMP_pressure;BME280_temperature;BME280_humidity;BME280_pressure;Samples;Min_cycle;Max_cycle;Signal;HPM_P1;HPM_P2
2021/03/07 00:02:23;;;;;;;18.30;15.68;;;3.10;99.90;;;;;;5011269;28;20054;-89
2021/03/07 00:04:49;;;;;;;23.02;16.30;;;3.10;99.90;;;;;;5031151;28;20045;-89
2021/03/07 00:07:16;;;;;;;22.05;16.40;;;3.10;99.90;;;;;;5024187;28;20464;-89
2021/03/07 00:09:43;;;;;;;21.55;16.63;;;3.10;99.90;;;;;;5023148;28;20088;-89
2021/03/07 00:12:09;;;;;;;22.08;15.68;;;3.00;99.90;;;;;;5011185;28;20050;-89
2021/03/07 00:14:36;;;;;;;24.85;16.17;;;3.00;99.90;;;;;;5014227;28;20585;-89
2021/03/07 00:17:03;;;;;;;22.88;16.55;;;3.00;99.90;;;;;;5012239;28;20423;-89
2021/03/07 00:19:30;;;;;;;21.77;16.20;;;3.00;99.90;;;;;;5012781;28;20046;-89
2021/03/07 00:21:56;;;;;;;24.48;16.65;;;3.00;99.90;;;;;;5011004;28;20053;-88
2021/03/07 00:24:23;;;;;;;21.92;16.38;;;2.90;99.90;;;;;;5014394;28;20099;-89
2021/03/07 00:26:49;;;;;;;25.35;17.27;;;2.90;99.90;;;;;;5015418;28;20062;-89
2021/03/07 00:29:16;;;;;;;20.40;16.45;;;2.90;99.90;;;;;;5012584;28;20046;-89
2021/03/07 00:31:42;;;;;;;23.80;16.73;;;2.90;99.90;;;;;;5011568;28;20076;-89
2021/03/07 00:34:09;;;;;;;22.40;16.27;;;2.80;99.90;;;;;;5021273;28;20069;-88
2021/03/07 00:36:35;;;;;;;22.95;16.92;;;2.80;99.90;;;;;;5012340;28;20100;-89
2021/03/07 00:39:04;;;;;;;28.33;18.15;;;2.80;99.90;;;;;;5018129;28;20068;-89
2021/03/07 00:41:43;;;;;;;22.27;16.70;;;2.80;99.90;;;;;;5003252;28;20049;-89
2021/03/07 00:44:11;;;;;;;21.63;16.98;;;2.70;99.90;;;;;;5017169;28;20455;-89
2021/03/07 00:46:41;;;;;;;24.00;17.05;;;2.70;99.90;;;;;;5012507;28;20099;-89
2021/03/07 00:49:08;;;;;;;27.17;17.10;;;2.70;99.90;;;;;;5022326;28;20038;-89
2021/03/07 00:51:36;;;;;;;22.45;16.67;;;2.70;99.90;;;;;;5014973;28;20065;-89
2021/03/07 00:54:03;;;;;;;26.40;17.65;;;2.70;99.90;;;;;;5017247;28;20041;-89
2021/03/07 00:56:30;;;;;;;23.92;16.92;;;2.70;99.90;;;;;;5015502;28;20042;-89
2021/03/07 00:58:56;;;;;;;23.88;16.98;;;2.70;99.90;;;;;;5018537;28;20107;-89
2021/03/07 01:01:23;;;;;;;21.70;16.25;;;2.60;99.90;;;;;;5012165;28;20479;-89
2021/03/07 01:03:50;;;;;;;21.60;16.83;;;2.60;99.90;;;;;;5019331;28;20053;-89
2021/03/07 01:06:16;;;;;;;22.63;17.27;;;2.60;99.90;;;;;;5002322;28;20042;-88
2021/03/07 01:08:43;;;;;;;23.48;17.13;;;2.60;99.90;;;;;;5001065;28;20478;-89
2021/03/07 01:11:10;;;;;;;23.27;17.08;;;2.60;99.90;;;;;;5016219;28;20072;-89
2021/03/07 01:13:36;;;;;;;28.50;17.00;;;2.60;99.90;;;;;;5021161;28;20057;-90
2021/03/07 01:16:03;;;;;;;21.80;16.48;;;2.50;99.90;;;;;;5013243;28;20052;-90
2021/03/07 01:18:30;;;;;;;24.55;16.75;;;2.50;99.90;;;;;;5013431;28;20076;-89
2021/03/07 01:20:57;;;;;;;23.73;17.42;;;2.50;99.90;;;;;;5017067;28;20041;-89
2021/03/07 01:23:24;;;;;;;24.63;17.95;;;2.50;99.90;;;;;;5015168;28;20529;-89
2021/03/07 01:25:51;;;;;;;27.08;18.73;;;2.50;99.90;;;;;;5016044;28;20054;-89
2021/03/07 01:28:18;;;;;;;25.25;17.92;;;2.50;99.90;;;;;;5014807;28;20045;-89
2021/03/07 01:30:45;;;;;;;26.70;17.88;;;2.50;99.90;;;;;;5012799;28;20045;-89
2021/03/07 01:33:12;;;;;;;25.30;18.02;;;2.50;99.90;;;;;;5012033;28;20049;-89
2021/03/07 01:35:39;;;;;;;26.15;17.95;;;2.50;99.90;;;;;;5017165;28;20132;-89
2021/03/07 01:38:07;;;;;;;24.88;17.70;;;2.50;99.90;;;;;;5013255;28;20049;-89
2021/03/07 01:40:52;;;;;;;22.67;17.50;;;2.50;99.90;;;;;;5017350;28;20053;-89
2021/03/07 01:43:20;;;;;;;22.40;17.73;;;2.50;99.90;;;;;;5013714;28;20419;-89
2021/03/07 01:45:47;;;;;;;26.60;18.23;;;2.50;99.90;;;;;;5018715;28;20045;-90
2021/03/07 01:48:16;;;;;;;27.08;18.33;;;2.50;99.90;;;;;;5011260;28;20475;-89
2021/03/07 01:50:52;;;;;;;26.30;18.08;;;2.50;99.90;;;;;;5002074;28;20482;-89
2021/03/07 01:53:21;;;;;;;26.83;18.73;;;2.50;99.90;;;;;;5014681;28;20049;-90
2021/03/07 01:55:50;;;;;;;25.38;19.15;;;2.50;99.90;;;;;;5012459;28;20053;-88
2021/03/07 01:58:27;;;;;;;24.73;18.55;;;2.50;99.90;;;;;;5016250;28;20511;-89
2021/03/07 02:00:55;;;;;;;26.20;18.60;;;2.40;99.90;;;;;;5015508;28;20037;-89
2021/03/07 02:03:23;;;;;;;27.00;19.25;;;2.40;99.90;;;;;;5012832;28;20042;-89
2021/03/07 02:05:50;;;;;;;24.55;19.25;;;2.40;99.90;;;;;;5016783;28;20102;-88
2021/03/07 02:08:19;;;;;;;27.15;18.13;;;2.40;99.90;;;;;;5014654;28;20064;-88
2021/03/07 02:10:47;;;;;;;27.50;18.80;;;2.40;99.90;;;;;;5015406;28;20151;-89
2021/03/07 02:13:31;;;;;;;25.38;19.30;;;2.30;99.90;;;;;;5015411;28;20479;-89
2021/03/07 02:16:03;;;;;;;28.38;19.48;;;2.30;99.90;;;;;;5007326;28;20050;-89
2021/03/07 02:18:35;;;;;;;27.35;18.70;;;2.30;99.90;;;;;;5013780;28;20104;-89
2021/03/07 02:21:16;;;;;;;27.17;18.92;;;2.20;99.90;;;;;;5012664;28;20103;-89
2021/03/07 02:24:12;;;;;;;27.30;18.88;;;2.20;99.90;;;;;;5011231;28;20075;-89
2021/03/07 02:26:44;;;;;;;23.05;19.15;;;2.20;99.90;;;;;;5011330;28;20048;-89
2021/03/07 02:29:12;;;;;;;23.98;19.50;;;2.20;99.90;;;;;;5010464;28;20115;-89
2021/03/07 02:31:44;;;;;;;24.60;18.67;;;2.20;99.90;;;;;;5013676;28;20112;-89
2021/03/07 02:34:19;;;;;;;29.65;19.27;;;2.10;99.90;;;;;;5012816;28;20128;-89
2021/03/07 02:36:51;;;;;;;29.95;20.17;;;2.10;99.90;;;;;;5010246;28;20472;-89
2021/03/07 02:39:20;;;;;;;27.50;20.45;;;2.10;99.90;;;;;;5011547;28;20525;-90
2021/03/07 02:41:47;;;;;;;27.58;20.23;;;2.10;99.90;;;;;;4996769;28;20057;-89
2021/03/07 02:44:17;;;;;;;26.77;19.77;;;2.10;99.90;;;;;;5014748;28;20064;-89
2021/03/07 02:46:46;;;;;;;26.88;20.25;;;2.00;99.90;;;;;;5015247;28;20314;-89
2021/03/07 02:49:16;;;;;;;26.50;20.08;;;2.00;99.90;;;;;;5013796;28;20045;-89
2021/03/07 02:51:43;;;;;;;;;;;2.10;99.90;;;;;;5015014;28;20504;-89
2021/03/07 02:54:10;;;;;;;;;;;2.10;99.90;;;;;;5015140;28;19979;-89
2021/03/07 02:56:37;;;;;;;;;;;2.10;99.90;;;;;;5013421;28;19925;-89
2021/03/07 02:59:11;;;;;;;;;;;2.10;99.90;;;;;;5014379;28;20408;-89
2021/03/07 03:01:38;;;;;;;;;;;2.10;99.90;;;;;;5016829;28;19921;-89
2021/03/07 03:04:06;;;;;;;;;;;2.10;99.90;;;;;;5016886;28;19925;-89
2021/03/07 03:06:35;;;;;;;;;;;2.10;99.90;;;;;;5018850;28;19932;-89
2021/03/07 03:09:03;;;;;;;;;;;2.10;99.90;;;;;;5016192;28;19979;-89
2021/03/07 03:11:35;;;;;;;;;;;2.10;99.90;;;;;;5014033;28;19925;-89
2021/03/07 03:14:02;;;;;;;;;;;2.20;99.90;;;;;;5011863;28;19928;-90
2021/03/07 03:16:30;;;;;;;;;;;2.20;99.90;;;;;;5012098;28;19987;-89
2021/03/07 03:18:57;;;;;;;;;;;2.20;99.90;;;;;;5014111;28;19929;-89
2021/03/07 03:21:23;;;;;;;;;;;2.20;99.90;;;;;;5015933;28;20353;-89
2021/03/07 03:23:50;;;;;;;;;;;2.20;99.90;;;;;;5015214;28;19925;-89
2021/03/07 03:26:19;;;;;;;;;;;2.20;99.90;;;;;;5014981;28;19928;-90
2021/03/07 03:28:47;;;;;;;;;;;2.20;99.90;;;;;;5003661;28;20359;-89
2021/03/07 03:31:14;;;;;;;;;;;2.30;99.90;;;;;;5008620;28;19967;-89
2021/03/07 03:33:40;;;;;;;;;;;2.20;99.90;;;;;;5010671;28;19921;-89
2021/03/07 03:36:07;;;;;;;;;;;2.20;99.90;;;;;;5011381;28;19940;-89
2021/03/07 03:38:37;;;;;;;;;;;2.20;99.90;;;;;;4998459;28;19975;-90
2021/03/07 03:41:04;;;;;;;;;;;2.20;99.90;;;;;;5014418;28;19921;-89
2021/03/07 03:43:47;;;;;;;;;;;2.20;99.90;;;;;;5016462;28;19977;-89
2021/03/07 03:46:14;;;;;;;;;;;2.20;99.90;;;;;;5011826;28;19921;-89
2021/03/07 03:48:43;;;;;;;;;;;2.20;99.90;;;;;;5016881;28;20289;-91
2021/03/07 03:51:10;;;;;;;;;;;2.30;99.90;;;;;;5016613;28;19932;-89
2021/03/07 03:53:39;;;;;;;;;;;2.20;99.90;;;;;;5014022;28;20413;-89
2021/03/07 03:56:06;;;;;;;;;;;2.20;99.90;;;;;;4998733;28;19921;-88
2021/03/07 03:58:42;;;;;;;;;;;2.30;99.90;;;;;;5004296;28;19922;-88
2021/03/07 04:01:09;;;;;;;;;;;2.20;99.90;;;;;;5007407;28;19924;-89
2021/03/07 04:03:36;;;;;;;;;;;2.20;99.90;;;;;;5014513;28;19921;-89
2021/03/07 04:06:03;;;;;;;;;;;2.20;99.90;;;;;;5001874;28;20274;-89
2021/03/07 04:08:30;;;;;;;;;;;2.20;99.90;;;;;;5014522;28;19921;-89
2021/03/07 04:10:57;;;;;;;;;;;2.20;99.90;;;;;;5012033;28;19921;-89
2021/03/07 04:13:25;;;;;;;;;;;2.20;99.90;;;;;;5014637;28;19979;-89
2021/03/07 04:15:52;;;;;;;;;;;2.20;99.90;;;;;;5011973;28;19924;-89
2021/03/07 04:18:21;;;;;;;;;;;2.20;99.90;;;;;;5008044;28;20040;-89
2021/03/07 04:20:48;;;;;;;;;;;2.20;99.90;;;;;;5014023;28;19920;-89
2021/03/07 04:23:15;;;;;;;;;;;2.20;99.90;;;;;;5008720;28;20209;-89
2021/03/07 04:25:41;;;;;;;;;;;2.20;99.90;;;;;;5016029;28;19921;-89
2021/03/07 04:28:08;;;;;;;;;;;2.20;99.90;;;;;;5013543;28;19999;-89
2021/03/07 04:30:36;;;;;;;;;;;2.20;99.90;;;;;;5002878;28;19921;-89
2021/03/07 04:33:02;;;;;;;;;;;2.20;99.90;;;;;;5014209;28;19921;-89
2021/03/07 04:35:30;;;;;;;;;;;2.20;99.90;;;;;;5013143;28;20355;-89
2021/03/07 04:37:57;;;;;;;;;;;2.20;99.90;;;;;;5011895;28;20301;-89
2021/03/07 04:40:24;;;;;;;;;;;2.20;99.90;;;;;;5011881;28;19921;-89
2021/03/07 04:42:50;;;;;;;;;;;2.20;99.90;;;;;;5007813;28;19928;-89
2021/03/07 04:45:17;;;;;;;;;;;2.20;99.90;;;;;;5010744;28;20355;-89
2021/03/07 04:47:43;;;;;;;;;;;2.20;99.90;;;;;;5013951;28;19996;-88
2021/03/07 04:50:11;;;;;;;;;;;2.20;99.90;;;;;;5006630;28;21283;-89
2021/03/07 04:52:38;;;;;;;;;;;2.20;99.90;;;;;;5016190;28;19924;-89
2021/03/07 04:55:05;;;;;;;;;;;2.20;99.90;;;;;;5009994;28;19928;-89
2021/03/07 04:57:31;;;;;;;;;;;2.20;99.90;;;;;;5005581;28;19944;-88
2021/03/07 04:59:57;;;;;;;;;;;2.20;99.90;;;;;;5012952;28;20384;-89
2021/03/07 05:02:24;;;;;;;;;;;2.20;99.90;;;;;;5014493;28;20359;-89
2021/03/07 05:04:50;;;;;;;;;;;2.20;99.90;;;;;;5016961;28;19921;-90
2021/03/07 05:07:17;;;;;;;;;;;2.10;99.90;;;;;;5014948;28;20382;-89
2021/03/07 05:09:43;;;;;;;;;;;2.10;99.90;;;;;;5014206;28;19920;-90
2021/03/07 05:12:10;;;;;;;;;;;2.10;99.90;;;;;;5013668;28;19925;-89
2021/03/07 05:14:49;;;;;;;;;;;2.10;99.90;;;;;;5017030;28;20628;-89
2021/03/07 05:17:16;;;;;;;;;;;2.10;99.90;;;;;;5013474;28;19923;-89
2021/03/07 05:19:43;;;;;;;;;;;2.10;99.90;;;;;;5027717;28;19960;-89
2021/03/07 05:22:10;;;;;;;;;;;2.10;99.90;;;;;;5029274;28;19929;-89
2021/03/07 05:24:37;;;;;;;;;;;2.10;99.90;;;;;;5014778;28;19924;-90
2021/03/07 05:27:06;;;;;;;;;;;2.00;99.90;;;;;;5017089;28;19922;-89
2021/03/07 05:29:34;;;;;;;;;;;2.10;99.90;;;;;;5017883;28;20256;-89
2021/03/07 05:32:00;;;;;;;;;;;2.10;99.90;;;;;;5014102;28;19925;-89
2021/03/07 05:34:27;;;;;;;;;;;2.10;99.90;;;;;;5026000;28;19921;-89
2021/03/07 05:36:54;;;;;;;;;;;2.10;99.90;;;;;;5015048;28;20347;-89
2021/03/07 05:39:20;;;;;;;;;;;2.10;99.90;;;;;;5015184;28;19929;-89
2021/03/07 05:41:47;;;;;;;;;;;2.10;99.90;;;;;;5014145;28;19974;-89
2021/03/07 05:44:14;;;;;;;;;;;2.10;99.90;;;;;;5014132;28;19927;-89
2021/03/07 05:46:40;;;;;;;;;;;2.10;99.90;;;;;;5010931;28;19925;-89
2021/03/07 05:49:07;;;;;;;;;;;2.10;99.90;;;;;;5006188;28;19920;-89
2021/03/07 05:51:34;;;;;;;;;;;2.10;99.90;;;;;;5016366;28;19928;-90
2021/03/07 05:54:01;;;;;;;;;;;2.10;99.90;;;;;;5014818;28;19937;-90
2021/03/07 05:56:27;;;;;;;;;;;2.10;99.90;;;;;;5013591;28;20415;-89
2021/03/07 05:58:54;;;;;;;;;;;2.10;99.90;;;;;;5014458;28;19925;-89
2021/03/07 06:01:21;;;;;;;;;;;2.10;99.90;;;;;;5019008;28;20339;-90
2021/03/07 06:03:47;;;;;;;;;;;2.10;99.90;;;;;;5018539;28;20251;-89
2021/03/07 06:06:14;;;;;;;;;;;2.10;99.90;;;;;;5018045;28;19929;-89
2021/03/07 06:08:40;;;;;;;;;;;2.10;99.90;;;;;;5019907;28;19974;-90
2021/03/07 06:11:07;;;;;;;;;;;2.10;99.90;;;;;;5014183;28;19922;-89
2021/03/07 06:13:37;;;;;;;;;;;2.10;99.90;;;;;;5031333;28;19925;-89
2021/03/07 06:16:11;;;;;;;;;;;2.10;99.90;;;;;;5014366;28;19926;-89
2021/03/07 06:18:41;;;;;;;;;;;2.10;99.90;;;;;;5007572;28;20274;-89
2021/03/07 06:21:27;;;;;;;;;;;2.00;99.90;;;;;;5012341;28;20008;-89
2021/03/07 06:23:54;;;;;;;;;;;2.00;99.90;;;;;;5001143;28;19967;-89
2021/03/07 06:26:20;;;;;;;;;;;2.00;99.90;;;;;;5013164;28;19926;-90
2021/03/07 06:28:47;;;;;;;;;;;2.00;99.90;;;;;;5014514;28;19928;-89
2021/03/07 06:31:30;;;;;;;;;;;2.00;99.90;;;;;;5015769;28;19921;-89
2021/03/07 06:33:57;;;;;;;;;;;2.00;99.90;;;;;;5016136;28;19928;-90
2021/03/07 06:36:24;;;;;;;;;;;2.00;99.90;;;;;;5013555;28;20910;-90
2021/03/07 06:38:58;;;;;;;;;;;1.90;99.90;;;;;;5015747;28;19933;-90
2021/03/07 06:41:27;;;;;;;;;;;2.00;99.90;;;;;;5014063;28;19929;-90
2021/03/07 06:44:05;;;;;;;;;;;1.90;99.90;;;;;;5013276;28;19921;-90
2021/03/07 06:46:33;;;;;;;;;;;2.00;99.90;;;;;;5012632;28;19921;-90
2021/03/07 06:49:00;;;;;;;;;;;2.00;99.90;;;;;;5016144;28;19951;-90
2021/03/07 06:51:28;;;;;;;;;;;2.00;99.90;;;;;;5016478;28;19921;-90
2021/03/07 06:53:55;;;;;;;;;;;1.90;99.90;;;;;;5020295;28;19921;-90
2021/03/07 06:56:41;;;;;;;;;;;2.00;99.90;;;;;;5018988;28;19928;-90
2021/03/07 06:59:11;;;;;;;;;;;1.90;99.90;;;;;;5006574;28;20317;-90
2021/03/07 07:01:38;;;;;;;;;;;1.90;99.90;;;;;;5017584;28;19975;-90
2021/03/07 07:04:05;;;;;;;;;;;1.90;99.90;;;;;;5017302;28;19944;-90
2021/03/07 07:06:32;;;;;;;;;;;1.90;99.90;;;;;;5017560;28;19921;-90
2021/03/07 07:08:59;;;;;;;;;;;1.90;99.90;;;;;;5017996;28;20499;-90
2021/03/07 07:11:26;;;;;;;;;;;1.90;99.90;;;;;;5015639;28;19924;-90
2021/03/07 07:13:53;;;;;;;;;;;1.90;99.90;;;;;;5011579;28;19921;-90
2021/03/07 07:16:35;;;;;;;;;;;2.00;99.90;;;;;;5013667;28;19921;-90
2021/03/07 07:19:02;;;;;;;;;;;2.00;99.90;;;;;;5016316;28;19943;-90
2021/03/07 07:21:29;;;;;;;;;;;2.00;99.90;;;;;;5017330;28;19948;-91
2021/03/07 07:23:55;;;;;;;;;;;2.10;99.90;;;;;;5019816;28;19975;-92
2021/03/07 07:26:22;;;;;;;;;;;2.10;99.90;;;;;;5014784;28;19927;-90
2021/03/07 07:28:52;;;;;;;;;;;2.10;99.90;;;;;;5013030;28;19996;-89
2021/03/07 07:31:29;;;;;;;;;;;2.20;99.90;;;;;;5005283;28;19924;-89
2021/03/07 07:33:57;;;;;;;;;;;2.20;99.90;;;;;;5008245;28;19925;-89
2021/03/07 07:36:40;;;;;;;;;;;2.20;99.90;;;;;;5008100;28;19959;-88
2021/03/07 07:39:09;;;;;;;;;;;2.30;99.90;;;;;;5010025;28;19928;-89
2021/03/07 07:41:36;;;;;;;;;;;2.30;99.90;;;;;;5009617;28;20374;-89
2021/03/07 07:44:05;;;;;;;;;;;2.40;99.90;;;;;;5010572;28;19921;-90
2021/03/07 07:47:01;;;;;;;;;;;2.50;99.90;;;;;;5012776;28;19931;-89
2021/03/07 07:49:53;;;;;;;;;;;2.60;99.90;;;;;;5009075;28;19925;-89
2021/03/07 07:52:23;;;;;;;;;;;2.70;99.90;;;;;;5021551;28;19929;-90
2021/03/07 07:54:50;;;;;;;;;;;2.80;99.90;;;;;;5010889;28;19975;-89
2021/03/07 07:57:50;;;;;;;;;;;2.80;99.90;;;;;;5010801;28;19925;-89
2021/03/07 08:00:21;;;;;;;;;;;2.90;99.90;;;;;;4928919;28;19927;-89
2021/03/07 08:02:51;;;;;;;;;;;3.10;99.90;;;;;;4947569;28;19926;-89
2021/03/07 08:05:20;;;;;;;;;;;3.10;99.90;;;;;;4928402;28;19930;-88
2021/03/07 08:07:56;;;;;;;;;;;3.20;99.90;;;;;;4938239;29;19977;-89
2021/03/07 08:10:37;;;;;;;;;;;3.30;99.90;;;;;;4956240;28;19930;-89
2021/03/07 08:13:04;;;;;;;;;;;3.40;99.90;;;;;;4948196;28;20590;-88
2021/03/07 08:15:31;;;;;;;;;;;3.50;99.90;;;;;;4950889;28;20424;-90
2021/03/07 08:17:59;;;;;;;;;;;3.60;99.90;;;;;;4941861;28;19923;-89
2021/03/07 08:20:37;;;;;;;;;;;3.70;99.90;;;;;;4931173;28;19923;-89
2021/03/07 08:23:04;;;;;;;;;;;3.80;99.90;;;;;;4947026;28;19926;-89
2021/03/07 08:25:48;;;;;;;;;;;3.90;99.90;;;;;;4935559;29;19926;-90
2021/03/07 08:28:27;;;;;;;;;;;4.00;99.90;;;;;;4954343;28;19922;-89
2021/03/07 08:30:54;;;;;;;;;;;4.10;99.90;;;;;;4948251;29;20312;-89
2021/03/07 08:33:28;;;;;;;;;;;4.20;99.90;;;;;;4929629;28;19944;-89
2021/03/07 08:36:10;;;;;;;;;;;4.30;99.90;;;;;;4957883;28;19928;-90
2021/03/07 08:38:56;;;;;;;;;;;4.40;99.90;;;;;;4992314;28;19934;-89
2021/03/07 08:41:23;;;;;;;;;;;4.50;99.90;;;;;;4989869;28;19933;-90
2021/03/07 08:43:51;;;;;;;;;;;4.70;99.90;;;;;;4996275;28;19921;-90
2021/03/07 08:46:23;;;;;;;;;;;4.80;99.90;;;;;;4998919;28;19926;-89
2021/03/07 08:48:51;;;;;;;;;;;4.80;99.90;;;;;;4986481;28;19921;-89
2021/03/07 08:51:19;;;;;;;;;;;4.90;99.90;;;;;;4994158;28;19928;-85
2021/03/07 08:53:46;;;;;;;;;;;5.00;99.90;;;;;;4990281;28;19925;-90
2021/03/07 08:56:13;;;;;;;;;;;5.10;99.90;;;;;;4993985;28;19928;-85
2021/03/07 08:58:40;;;;;;;;;;;5.20;99.90;;;;;;4997527;28;19921;-89
2021/03/07 09:01:07;;;;;;;;;;;5.30;99.90;;;;;;5005641;28;20447;-88
2021/03/07 09:03:34;;;;;;;;;;;5.40;99.90;;;;;;4989232;28;19921;-88
2021/03/07 09:06:08;;;;;;;;;;;5.50;99.90;;;;;;4998796;28;19921;-89
2021/03/07 09:08:34;;;;;;;;;;;5.60;99.90;;;;;;5004547;28;19922;-90
2021/03/07 09:11:02;;;;;;;;;;;5.70;99.90;;;;;;4994735;28;20330;-90
2021/03/07 09:13:29;;;;;;;;;;;5.70;99.90;;;;;;4992350;28;19925;-90
2021/03/07 09:15:57;;;;;;;;;;;5.80;99.90;;;;;;4991530;28;19928;-89
2021/03/07 09:18:24;;;;;;;;;;;5.90;99.90;;;;;;5000672;28;19936;-90
2021/03/07 09:20:55;;;;;;;;;;;5.90;99.90;;;;;;4990540;28;19964;-90
2021/03/07 09:23:24;;;;;;;;;;;6.00;99.90;;;;;;5003027;28;19922;-90
2021/03/07 09:25:51;;;;;;;;;;;6.10;99.90;;;;;;4997331;28;20371;-90
2021/03/07 09:28:37;;;;;;;;;;;6.20;99.90;;;;;;5006678;28;19964;-90
2021/03/07 09:31:05;;;;;;;;;;;6.20;99.90;;;;;;4994525;28;19933;-90
2021/03/07 09:33:32;;;;;;;;;;;6.40;99.90;;;;;;4994127;28;20003;-90
2021/03/07 09:36:09;;;;;;;;;;;6.50;99.90;;;;;;4988804;28;19976;-89
2021/03/07 09:38:39;;;;;;;;;;;6.50;99.90;;;;;;4975429;28;19922;-89
2021/03/07 09:41:06;;;;;;;;;;;6.60;99.90;;;;;;4994764;28;19944;-89
2021/03/07 09:43:33;;;;;;;;;;;6.70;99.90;;;;;;4994007;28;20383;-90
2021/03/07 09:45:59;;;;;;;;;;;6.80;99.90;;;;;;4986382;28;19921;-90
2021/03/07 09:48:30;;;;;;;;;;;6.80;99.90;;;;;;4987757;28;19980;-89
2021/03/07 09:50:57;;;;;;;;;;;6.80;99.90;;;;;;4988237;28;19925;-90
2021/03/07 09:53:24;;;;;;;;;;;6.80;99.90;;;;;;4982866;28;19938;-90
2021/03/07 09:55:51;;;;;;;;;;;6.80;99.90;;;;;;5002021;28;19930;-89
2021/03/07 09:58:17;;;;;;;;;;;6.90;99.90;;;;;;4984409;28;19922;-90
2021/03/07 10:00:51;;;;;;;;;;;6.90;99.90;;;;;;4991369;28;19968;-89
2021/03/07 10:03:25;;;;;;;;;;;7.00;99.90;;;;;;4981100;28;19928;-90
2021/03/07 10:06:07;;;;;;;;;;;7.10;99.90;;;;;;4986774;28;20319;-89
2021/03/07 10:08:34;;;;;;;;;;;7.10;99.90;;;;;;4996519;28;19927;-90
2021/03/07 10:11:10;;;;;;;;;;;7.20;99.90;;;;;;4989278;28;19961;-90
2021/03/07 10:13:36;;;;;;;;;;;7.20;99.90;;;;;;4993600;28;19928;-94
2021/03/07 10:16:05;;;;;;;;;;;7.30;99.90;;;;;;4986592;28;19967;-90
2021/03/07 10:18:35;;;;;;;;;;;7.30;99.90;;;;;;4992272;28;20016;-90
2021/03/07 10:21:02;;;;;;;;;;;7.30;99.90;;;;;;4988746;28;19921;-91
2021/03/07 10:23:30;;;;;;;;;;;7.10;99.90;;;;;;4998322;28;19921;-90
2021/03/07 10:25:59;;;;;;;;;;;7.20;99.90;;;;;;4996281;28;19925;-90
2021/03/07 10:28:33;;;;;;;;;;;7.30;99.90;;;;;;4993376;28;19980;-92
2021/03/07 10:31:13;;;;;;;;;;;7.30;99.90;;;;;;4996016;28;19928;-90
2021/03/07 10:33:41;;;;;;;;;;;7.30;99.90;;;;;;4985989;28;20414;-91
2021/03/07 10:36:15;;;;;;;;;;;7.30;99.90;;;;;;4994582;28;20439;-90
2021/03/07 10:38:43;;;;;;;;;;;7.30;99.90;;;;;;5005639;28;20381;-91
2021/03/07 10:41:21;;;;;;;;;;;7.40;99.90;;;;;;5012267;28;19967;-91
2021/03/07 10:43:55;;;;;;;;;;;7.50;99.90;;;;;;5000503;28;19929;-91
2021/03/07 10:46:24;;;;;;;;;;;7.50;99.90;;;;;;5004668;28;19921;-91
2021/03/07 10:48:57;;;;;;;;;;;7.60;99.90;;;;;;4997677;28;20008;-90
2021/03/07 10:51:24;;;;;;;;;;;7.60;99.90;;;;;;4993617;28;19937;-90
2021/03/07 10:53:51;;;;;;;;;;;7.70;99.90;;;;;;4992483;28;19932;-90
2021/03/07 10:56:17;;;;;;;;;;;7.80;99.90;;;;;;4991319;28;19921;-93
2021/03/07 10:58:44;;;;;;;;;;;7.80;99.90;;;;;;5007960;28;19951;-90
2021/03/07 11:01:15;;;;;;;;;;;7.90;99.90;;;;;;4992916;28;19925;-90
2021/03/07 11:03:45;;;;;;;;;;;7.90;99.90;;;;;;4994869;28;19929;-90
2021/03/07 11:06:11;;;;;;;;;;;8.00;99.90;;;;;;4995110;28;19921;-93
2021/03/07 11:08:38;;;;;;;;;;;8.00;99.90;;;;;;4993841;28;19936;-92
2021/03/07 11:11:05;;;;;;;;;;;8.10;99.90;;;;;;4996287;28;19921;-91
2021/03/07 11:13:32;;;;;;;;;;;8.10;99.90;;;;;;4993842;28;19921;-92
2021/03/07 11:15:59;;;;;;;;;;;8.10;99.90;;;;;;5002940;28;19921;-92
2021/03/07 11:18:27;;;;;;;;;;;8.10;99.90;;;;;;4983947;28;19921;-96
2021/03/07 11:20:54;;;;;;;;;;;8.10;99.90;;;;;;4996104;28;20386;-91
2021/03/07 11:23:21;;;;;;;;;;;8.10;99.90;;;;;;4993732;28;19922;-90
2021/03/07 11:25:47;;;;;;;;;;;8.20;99.90;;;;;;4991493;28;19925;-91
2021/03/07 11:28:14;;;;;;;;;;;8.20;99.90;;;;;;4995165;28;20401;-92
2021/03/07 11:30:41;;;;;;;;;;;8.20;99.90;;;;;;5002950;28;19929;-91
2021/03/07 11:33:08;;;;;;;;;;;8.20;99.90;;;;;;4993985;28;19921;-91
2021/03/07 11:35:35;;;;;;;;;;;8.20;99.90;;;;;;4983207;28;19929;-92
2021/03/07 11:38:02;;;;;;;;;;;8.30;99.90;;;;;;4993742;28;20267;-88
2021/03/07 11:40:29;;;;;;;;;;;8.30;99.80;;;;;;4995191;28;19925;-92
2021/03/07 11:42:55;;;;;;;;;;;8.30;99.90;;;;;;4997020;28;19925;-93
2021/03/07 11:45:23;;;;;;;;;;;8.30;99.90;;;;;;4995107;28;19921;-92
2021/03/07 11:47:49;;;;;;;;;;;8.30;99.90;;;;;;4999206;28;19948;-92
2021/03/07 11:50:17;;;;;;;;;;;8.40;99.90;;;;;;4991835;28;19921;-92
2021/03/07 11:52:44;;;;;;;;;;;8.40;99.90;;;;;;4999530;28;19922;-93
2021/03/07 11:55:10;;;;;;;;;;;8.50;99.90;;;;;;4998796;28;19925;-92
2021/03/07 11:57:37;;;;;;;;;;;8.60;99.90;;;;;;4986205;28;19929;-92
2021/03/07 12:00:04;;;;;;;;;;;8.60;99.80;;;;;;4995313;28;19928;-93
2021/03/07 12:02:31;;;;;;;;;;;8.60;99.80;;;;;;5002348;28;19921;-92
2021/03/07 12:04:58;;;;;;;;;;;8.70;99.90;;;;;;5003653;28;19922;-92
2021/03/07 12:07:25;;;;;;;;;;;8.70;99.90;;;;;;5015750;28;19921;-92
2021/03/07 12:09:52;;;;;;;;;;;8.70;99.50;;;;;;4997179;28;19929;-93
2021/03/07 12:12:18;;;;;;;;;;;8.70;97.50;;;;;;4985528;28;19921;-93
2021/03/07 12:14:45;;;;;;;;;;;8.60;98.80;;;;;;4987578;28;20390;-92
2021/03/07 12:17:13;;;;;;;;;;;8.50;99.30;;;;;;4994613;28;19928;-92
2021/03/07 12:19:55;;;;;;;;;;;8.40;98.90;;;;;;4995604;28;19929;-92
2021/03/07 12:22:22;;;;;;;;;;;8.40;99.10;;;;;;5015573;28;19921;-92
2021/03/07 12:24:48;;;;;;;;;;;8.30;99.50;;;;;;5012869;28;20355;-92
2021/03/07 12:27:15;;;;;;;;;;;8.40;98.80;;;;;;5013909;28;19928;-91
2021/03/07 12:29:41;;;;;;;;;;;8.50;99.90;;;;;;5010966;28;19963;-92
2021/03/07 12:32:08;;;;;;;;;;;8.70;99.60;;;;;;5006050;28;19926;-92
2021/03/07 12:34:34;;;;;;;;;;;8.90;99.20;;;;;;5022148;28;19944;-92
2021/03/07 12:37:01;;;;;;;;;;;8.90;98.70;;;;;;5015760;28;20321;-92
2021/03/07 12:39:27;;;;;;;;;;;9.10;99.50;;;;;;5016960;28;19920;-92
2021/03/07 12:41:53;;;;;;;;;;;9.20;98.60;;;;;;5010350;28;19929;-93
2021/03/07 12:44:20;;;;;;;;;;;9.30;98.40;;;;;;5010341;28;19936;-92
2021/03/07 12:46:47;;;;;;;;;;;9.30;98.10;;;;;;5014716;28;19925;-93
2021/03/07 12:49:14;;;;;;;;;;;9.40;96.90;;;;;;5016688;28;19928;-92
2021/03/07 12:51:42;;;;;;;;;;;9.20;97.30;;;;;;5012627;28;19933;-92
2021/03/07 12:54:09;;;;;;;;;;;9.20;97.30;;;;;;5012330;28;19925;-92
2021/03/07 12:56:35;;;;;;;;;;;9.30;98.60;;;;;;5011249;28;19928;-92
2021/03/07 12:59:02;;;;;;;;;;;9.30;98.50;;;;;;5008471;28;20382;-94
2021/03/07 13:01:29;;;;;;;;;;;9.10;97.20;;;;;;5004673;28;19949;-93
2021/03/07 13:03:57;;;;;;;;;;;8.90;97.90;;;;;;5017259;28;19924;-92
2021/03/07 13:06:23;;;;;;;;;;;8.90;98.90;;;;;;5015674;28;19971;-92
2021/03/07 13:08:50;;;;;;;;;;;8.80;98.20;;;;;;5014659;28;19924;-93
2021/03/07 13:11:16;;;;;;;;;;;8.80;98.20;;;;;;5015047;28;19925;-94
2021/03/07 13:13:43;;;;;;;;;;;8.80;97.90;;;;;;5018660;28;19921;-93
2021/03/07 13:16:13;;;;;;;;;;;8.60;97.30;;;;;;5022446;28;20126;-94
2021/03/07 13:18:40;;;;;;;;;;;8.60;97.60;;;;;;5032663;28;20370;-93
2021/03/07 13:21:07;;;;;;;;;;;8.60;98.00;;;;;;5024075;28;19943;-93
2021/03/07 13:23:34;;;;;;;;;;;8.70;97.40;;;;;;5022361;28;19931;-93
2021/03/07 13:26:00;;;;;;;;;;;8.90;99.00;;;;;;5020030;28;19936;-92
2021/03/07 13:28:27;;;;;;;;;;;9.10;99.40;;;;;;5024592;28;20374;-93
2021/03/07 13:30:54;;;;;;;;;;;9.20;99.10;;;;;;5022639;28;19975;-92
2021/03/07 13:33:21;;;;;;;;;;;9.20;97.80;;;;;;5016443;28;19921;-93
2021/03/07 13:35:48;;;;;;;;;;;9.20;97.30;;;;;;5024436;28;19920;-93
2021/03/07 13:38:15;;;;;;;;;;;9.20;97.20;;;;;;5015138;28;19931;-93
2021/03/07 13:40:43;;;;;;;;;;;9.30;97.60;;;;;;5023870;28;19979;-94
2021/03/07 13:43:10;;;;;;;;;;;9.30;98.00;;;;;;5020973;28;20149;-94
2021/03/07 13:45:37;;;;;;;;;;;9.40;97.60;;;;;;5013122;28;19943;-93
2021/03/07 13:48:03;;;;;;;;;;;9.50;97.10;;;;;;5015309;28;19927;-93
2021/03/07 13:50:31;;;;;;;;;;;9.60;97.50;;;;;;5006113;28;20012;-93
2021/03/07 13:52:58;;;;;;;;;;;9.60;97.50;;;;;;5009436;28;19975;-94
2021/03/07 13:55:25;;;;;;;;;;;9.70;96.80;;;;;;5015600;28;19921;-93
2021/03/07 13:57:52;;;;;;;;;;;9.70;96.90;;;;;;5018397;28;19921;-92
2021/03/07 14:00:18;;;;;;;;;;;9.80;96.80;;;;;;5010340;28;19925;-93
2021/03/07 14:02:45;;;;;;;;;;;9.90;96.70;;;;;;5007779;28;19929;-94
2021/03/07 14:05:12;;;;;;;;;;;10.00;96.80;;;;;;5015411;28;19983;-93
2021/03/07 14:07:39;;;;;;;;;;;9.90;96.10;;;;;;5013132;28;19939;-92
2021/03/07 14:10:07;;;;;;;;;;;9.70;96.60;;;;;;5017629;28;19975;-93
2021/03/07 14:12:34;;;;;;;;;;;9.60;97.60;;;;;;5014115;28;19930;-93
2021/03/07 14:15:01;;;;;;;;;;;9.50;96.60;;;;;;5019438;28;19927;-94